createdAt,value
2022-08-29T00:00:48.919Z,10.17
2022-08-29T00:03:16.884Z,11.87
2022-08-29T00:05:44.784Z,8.63
2022-08-29T00:08:16.621Z,8.47
2022-08-29T00:10:42.904Z,10.23
2022-08-29T00:13:09.884Z,8.00
2022-08-29T00:15:44.382Z,8.73
2022-08-29T00:18:11.976Z,11.17
2022-08-29T00:20:38.256Z,10.70
2022-08-29T00:23:05.820Z,11.80
2022-08-29T00:25:32.138Z,8.50
2022-08-29T00:27:58.499Z,9.47
2022-08-29T00:30:25.228Z,7.80
2022-08-29T00:32:51.928Z,10.53
2022-08-29T00:35:22.183Z,6.33
2022-08-29T00:37:48.489Z,9.60
2022-08-29T00:40:17.418Z,8.50
2022-08-29T00:42:44.347Z,14.43
2022-08-29T00:45:11.746Z,11.73
2022-08-29T00:47:40.146Z,11.60
2022-08-29T00:50:08.833Z,10.30
2022-08-29T00:52:37.590Z,9.83
2022-08-29T00:55:06.630Z,9.93
2022-08-29T00:57:33.346Z,13.00
2022-08-29T00:59:59.857Z,10.73
2022-08-29T01:02:26.185Z,12.07
2022-08-29T01:04:52.547Z,7.53
2022-08-29T01:07:20.359Z,9.20
2022-08-29T01:09:47.102Z,10.13
2022-08-29T01:12:17.432Z,8.93
2022-08-29T01:14:49.846Z,7.27
2022-08-29T01:17:18.840Z,8.17
2022-08-29T01:19:59.939Z,13.43
2022-08-29T01:22:50.844Z,8.93
2022-08-29T01:25:19.523Z,8.87
2022-08-29T01:27:49.156Z,8.00
2022-08-29T01:30:15.459Z,11.80
2022-08-29T01:32:42.438Z,7.30
2022-08-29T01:35:08.946Z,10.97
2022-08-29T01:37:36.225Z,11.00
2022-08-29T01:40:02.817Z,10.40
2022-08-29T01:42:29.599Z,10.57
2022-08-29T01:45:05.386Z,11.03
2022-08-29T01:47:37.833Z,8.43
2022-08-29T01:50:06.287Z,12.47
2022-08-29T01:52:32.578Z,13.93
2022-08-29T01:54:59.212Z,8.47
2022-08-29T01:57:25.488Z,9.40
2022-08-29T01:59:51.922Z,7.93
2022-08-29T02:02:23.170Z,13.07
2022-08-29T02:04:49.971Z,7.10
2022-08-29T02:07:17.583Z,11.43
2022-08-29T02:09:45.909Z,12.23
2022-08-29T02:12:13.723Z,10.77
2022-08-29T02:14:40.693Z,10.67
2022-08-29T02:17:07.256Z,9.30
2022-08-29T02:19:34.269Z,13.00
2022-08-29T02:22:02.620Z,9.43
2022-08-29T02:24:29.388Z,15.10
2022-08-29T02:26:57.961Z,10.73
2022-08-29T02:29:25.356Z,9.40
2022-08-29T02:31:52.103Z,10.13
2022-08-29T02:34:18.654Z,8.90
2022-08-29T02:36:44.908Z,9.27
2022-08-29T02:39:15.349Z,8.07
2022-08-29T02:41:44.432Z,7.80
2022-08-29T02:44:11.040Z,10.37
2022-08-29T02:46:37.516Z,9.97
2022-08-29T02:49:03.902Z,10.10
2022-08-29T02:51:31.635Z,10.73
2022-08-29T02:53:58.367Z,15.57
2022-08-29T02:56:24.918Z,10.50
2022-08-29T02:58:51.554Z,9.57
2022-08-29T03:01:19.042Z,9.13
2022-08-29T03:03:45.412Z,9.57
2022-08-29T03:06:12.459Z,12.47
2022-08-29T03:08:39.268Z,9.27
2022-08-29T03:11:06.516Z,12.33
2022-08-29T03:13:33.669Z,9.73
2022-08-29T03:16:02.124Z,11.97
2022-08-29T03:18:28.631Z,12.43
2022-08-29T03:20:54.964Z,11.23
2022-08-29T03:23:21.482Z,13.77
2022-08-29T03:25:47.738Z,13.00
2022-08-29T03:28:14.182Z,14.10
2022-08-29T03:30:40.596Z,10.67
2022-08-29T03:33:09.922Z,11.90
2022-08-29T03:35:38.198Z,19.80
2022-08-29T03:38:04.459Z,15.60
2022-08-29T03:40:30.781Z,9.97
2022-08-29T03:42:58.019Z,7.27
2022-08-29T03:45:25.510Z,11.90
2022-08-29T03:47:53.532Z,10.57
2022-08-29T03:50:20.848Z,14.07
2022-08-29T03:52:47.776Z,10.53
2022-08-29T03:55:14.275Z,12.90
2022-08-29T03:57:40.701Z,9.00
2022-08-29T04:00:10.648Z,8.80
2022-08-29T04:02:37.036Z,11.43
2022-08-29T04:05:09.864Z,14.10
2022-08-29T04:07:39.003Z,12.73
2022-08-29T04:10:06.344Z,12.73
2022-08-29T04:12:32.815Z,9.40
2022-08-29T04:14:59.064Z,13.57
2022-08-29T04:17:25.324Z,11.83
2022-08-29T04:19:51.568Z,10.10
2022-08-29T04:22:17.859Z,27.57
2022-08-29T04:24:44.115Z,13.90
2022-08-29T04:27:10.370Z,11.73
2022-08-29T04:29:38.185Z,12.57
2022-08-29T04:32:04.548Z,12.40
2022-08-29T04:34:30.905Z,12.70
2022-08-29T04:36:58.416Z,10.00
2022-08-29T04:39:24.779Z,21.93
2022-08-29T04:41:51.092Z,17.17
2022-08-29T04:44:17.355Z,9.47
2022-08-29T04:46:43.686Z,12.90
2022-08-29T04:49:09.960Z,11.83
2022-08-29T04:51:36.745Z,11.03
2022-08-29T04:54:03.917Z,15.70
2022-08-29T04:56:30.295Z,13.70
2022-08-29T04:58:56.595Z,12.90
2022-08-29T05:01:24.369Z,17.23
2022-08-29T05:03:54.250Z,13.27
2022-08-29T05:06:22.714Z,10.37
2022-08-29T05:08:58.719Z,14.33
2022-08-29T05:11:27.289Z,9.43
2022-08-29T05:13:53.915Z,12.80
2022-08-29T05:16:20.707Z,12.27
2022-08-29T05:18:47.136Z,15.73
2022-08-29T05:21:15.187Z,16.23
2022-08-29T05:23:41.443Z,13.23
2022-08-29T05:26:07.743Z,16.70
2022-08-29T05:28:35.004Z,10.87
2022-08-29T05:31:02.048Z,15.33
2022-08-29T05:33:28.551Z,16.77
2022-08-29T05:35:54.826Z,17.30
2022-08-29T05:38:21.494Z,14.47
2022-08-29T05:40:47.812Z,19.50
2022-08-29T05:43:14.124Z,11.17
2022-08-29T05:45:41.235Z,11.57
2022-08-29T05:48:08.321Z,12.93
2022-08-29T05:50:41.926Z,16.70
2022-08-29T05:53:09.158Z,13.10
2022-08-29T05:55:39.334Z,10.87
2022-08-29T05:58:06.640Z,16.37
2022-08-29T06:00:32.922Z,11.80
2022-08-29T06:03:01.054Z,12.47
2022-08-29T06:05:27.586Z,13.67
2022-08-29T06:07:53.838Z,13.07
2022-08-29T06:10:20.244Z,18.47
2022-08-29T06:12:46.511Z,15.83
2022-08-29T06:15:12.791Z,14.43
2022-08-29T06:17:39.122Z,13.80
2022-08-29T06:20:09.778Z,16.80
2022-08-29T06:22:40.098Z,11.67
2022-08-29T06:25:28.301Z,14.37
2022-08-29T06:27:54.686Z,22.47
2022-08-29T06:30:21.172Z,14.27
2022-08-29T06:32:47.515Z,16.50
2022-08-29T06:35:13.912Z,14.40
2022-08-29T06:37:41.114Z,13.10
2022-08-29T06:40:07.883Z,15.57
2022-08-29T06:42:34.660Z,13.67
2022-08-29T06:45:00.911Z,15.70
2022-08-29T06:47:27.166Z,14.00
2022-08-29T06:49:53.468Z,16.83
2022-08-29T06:52:19.795Z,13.70
2022-08-29T06:54:46.129Z,14.37
2022-08-29T06:57:12.834Z,14.10
2022-08-29T06:59:39.092Z,20.83
2022-08-29T07:02:05.419Z,17.67
2022-08-29T07:04:32.657Z,13.50
2022-08-29T07:06:59.923Z,12.87
2022-08-29T07:09:26.213Z,12.70
2022-08-29T07:11:53.927Z,15.40
2022-08-29T07:14:20.344Z,12.77
2022-08-29T07:16:46.701Z,16.43
2022-08-29T07:19:12.983Z,11.33
2022-08-29T07:21:39.648Z,16.47
2022-08-29T07:24:06.680Z,17.47
2022-08-29T07:26:36.205Z,15.70
2022-08-29T07:29:05.207Z,10.60
2022-08-29T07:31:31.562Z,14.70
2022-08-29T07:34:02.053Z,13.43
2022-08-29T07:36:28.779Z,12.43
2022-08-29T07:38:55.088Z,17.20
2022-08-29T07:41:21.432Z,12.87
2022-08-29T07:43:47.868Z,14.00
2022-08-29T07:46:16.571Z,13.93
2022-08-29T07:48:43.408Z,11.63
2022-08-29T07:51:11.217Z,12.33
2022-08-29T07:53:37.725Z,10.53
2022-08-29T07:56:07.751Z,11.30
2022-08-29T07:58:34.417Z,9.70
2022-08-29T08:01:00.749Z,10.27
2022-08-29T08:03:27.241Z,13.37
2022-08-29T08:05:53.519Z,9.80
2022-08-29T08:08:19.993Z,9.43
2022-08-29T08:10:51.893Z,11.03
2022-08-29T08:13:18.984Z,12.70
2022-08-29T08:15:45.326Z,14.03
2022-08-29T08:18:15.233Z,9.20
2022-08-29T08:20:48.161Z,11.17
2022-08-29T08:23:16.111Z,9.97
2022-08-29T08:25:43.280Z,12.53
2022-08-29T08:28:10.069Z,16.80
2022-08-29T08:30:36.418Z,14.30
2022-08-29T08:33:02.720Z,11.50
2022-08-29T08:35:29.413Z,11.53
2022-08-29T08:37:56.891Z,13.87
2022-08-29T08:40:26.717Z,9.40
2022-08-29T08:42:55.520Z,10.37
2022-08-29T08:45:26.736Z,14.40
2022-08-29T08:48:03.544Z,15.17
2022-08-29T08:50:52.445Z,11.20
2022-08-29T08:53:30.421Z,11.70
2022-08-29T08:55:58.005Z,12.03
2022-08-29T08:58:29.335Z,12.07
2022-08-29T09:01:01.009Z,18.87
2022-08-29T09:03:30.432Z,13.33
2022-08-29T09:06:02.476Z,13.93
2022-08-29T09:08:28.710Z,13.00
2022-08-29T09:11:00.079Z,10.50
2022-08-29T09:13:36.395Z,10.07
2022-08-29T09:16:05.159Z,12.53
2022-08-29T09:18:39.799Z,13.40
2022-08-29T09:21:37.137Z,9.60
2022-08-29T09:23:59.598Z,14.37
2022-08-29T09:26:27.204Z,10.47
2022-08-29T09:28:53.741Z,8.43
2022-08-29T09:31:22.567Z,11.43
2022-08-29T09:33:52.206Z,10.57
2022-08-29T09:36:33.908Z,12.37
2022-08-29T09:39:11.120Z,12.10
2022-08-29T09:41:37.376Z,9.83
2022-08-29T09:44:04.288Z,10.57
2022-08-29T09:46:30.853Z,11.17
2022-08-29T09:49:00.110Z,12.63
2022-08-29T09:51:34.770Z,12.00
2022-08-29T09:54:11.740Z,8.67
2022-08-29T09:56:40.243Z,10.10
2022-08-29T09:59:22.092Z,12.30
2022-08-29T10:01:49.341Z,11.07
2022-08-29T10:04:35.626Z,10.10
2022-08-29T10:07:31.343Z,10.87
2022-08-29T10:10:03.968Z,10.43
2022-08-29T10:12:49.127Z,12.73
2022-08-29T10:15:39.843Z,9.87
2022-08-29T10:18:23.889Z,11.00
2022-08-29T10:21:10.215Z,9.33
2022-08-29T10:23:51.524Z,9.90
2022-08-29T10:26:36.457Z,8.30
2022-08-29T10:29:16.780Z,9.97
2022-08-29T10:31:46.331Z,10.23
2022-08-29T10:34:30.616Z,11.17
2022-08-29T10:37:11.394Z,9.37
2022-08-29T10:39:45.860Z,9.03
2022-08-29T10:42:16.214Z,8.93
2022-08-29T10:44:49.318Z,11.77
2022-08-29T10:47:25.584Z,9.80
2022-08-29T10:50:21.718Z,8.57
2022-08-29T10:53:06.667Z,10.00
2022-08-29T10:55:41.169Z,9.80
2022-08-29T10:58:26.413Z,8.70
2022-08-29T11:00:59.963Z,9.20
2022-08-29T11:03:41.049Z,8.07
2022-08-29T11:06:11.233Z,8.87
2022-08-29T11:08:40.146Z,14.70
2022-08-29T11:11:06.448Z,8.93
2022-08-29T11:13:41.732Z,8.20
2022-08-29T11:16:19.091Z,9.80
2022-08-29T11:18:51.145Z,11.60
2022-08-29T11:21:29.421Z,9.63
2022-08-29T11:23:58.266Z,8.53
2022-08-29T11:26:30.434Z,7.20
2022-08-29T11:29:01.858Z,10.07
2022-08-29T11:31:37.300Z,9.60
2022-08-29T11:34:17.088Z,11.10
2022-08-29T11:36:55.628Z,8.50
2022-08-29T11:39:48.137Z,10.90
2022-08-29T11:42:49.859Z,11.57
2022-08-29T11:45:03.922Z,9.43
2022-08-29T11:47:41.181Z,6.73
2022-08-29T11:50:16.895Z,9.67
2022-08-29T11:52:55.083Z,9.40
2022-08-29T11:55:23.849Z,5.90
2022-08-29T11:57:51.767Z,11.80
2022-08-29T12:02:57.309Z,7.83
2022-08-29T12:05:29.848Z,8.00
2022-08-29T12:08:26.241Z,11.17
2022-08-29T12:10:52.881Z,9.17
2022-08-29T12:13:42.320Z,10.03
2022-08-29T12:16:12.112Z,7.93
2022-08-29T12:18:40.677Z,7.03
2022-08-29T12:21:25.489Z,9.77
2022-08-29T12:23:51.800Z,11.17
2022-08-29T12:26:36.740Z,10.23
2022-08-29T12:29:10.447Z,6.70
2022-08-29T12:32:18.229Z,10.47
2022-08-29T12:34:45.329Z,9.13
2022-08-29T12:37:33.514Z,6.50
2022-08-29T12:40:06.686Z,7.43
2022-08-29T12:43:01.793Z,8.53
2022-08-29T12:45:28.425Z,7.17
2022-08-29T12:47:57.176Z,8.03
2022-08-29T12:50:32.341Z,7.40
2022-08-29T12:52:58.588Z,7.43
2022-08-29T12:55:28.978Z,8.57
2022-08-29T12:57:56.862Z,7.83
2022-08-29T13:00:27.320Z,8.40
2022-08-29T13:02:58.264Z,6.73
2022-08-29T13:05:28.912Z,8.60
2022-08-29T13:07:56.981Z,6.10
2022-08-29T13:10:23.658Z,9.73
2022-08-29T13:12:49.927Z,9.27
2022-08-29T13:15:19.955Z,7.60
2022-08-29T13:17:47.904Z,8.23
2022-08-29T13:20:32.927Z,7.57
2022-08-29T13:23:11.534Z,6.97
2022-08-29T13:25:56.681Z,8.77
2022-08-29T13:28:27.495Z,8.37
2022-08-29T13:31:26.344Z,6.57
2022-08-29T13:33:53.825Z,7.73
2022-08-29T13:36:32.230Z,7.97
2022-08-29T13:39:26.403Z,6.20
2022-08-29T13:42:01.919Z,6.43
2022-08-29T13:44:53.002Z,7.37
2022-08-29T13:47:20.981Z,6.00
2022-08-29T13:49:47.987Z,7.90
2022-08-29T13:52:14.904Z,5.83
2022-08-29T13:54:42.466Z,11.43
2022-08-29T13:57:12.766Z,5.63
2022-08-29T13:59:39.898Z,6.03
2022-08-29T14:02:08.931Z,9.20
2022-08-29T14:04:40.740Z,8.50
2022-08-29T14:07:13.148Z,6.23
2022-08-29T14:09:40.596Z,5.13
2022-08-29T14:12:08.120Z,6.20
2022-08-29T14:14:34.434Z,8.60
2022-08-29T14:17:00.847Z,8.23
2022-08-29T14:19:28.394Z,6.87
2022-08-29T14:21:55.108Z,7.67
2022-08-29T14:24:22.547Z,5.40
2022-08-29T14:27:01.598Z,7.13
2022-08-29T14:29:30.648Z,5.73
2022-08-29T14:31:57.255Z,7.03
2022-08-29T14:34:23.616Z,9.83
2022-08-29T14:36:51.119Z,6.80
2022-08-29T14:39:17.493Z,5.33
2022-08-29T14:41:43.796Z,16.10
2022-08-29T14:44:10.096Z,11.00
2022-08-29T14:46:42.205Z,11.73
2022-08-29T14:49:08.507Z,12.40
2022-08-29T14:51:34.788Z,11.03
2022-08-29T14:54:01.109Z,9.83
2022-08-29T14:56:47.711Z,6.20
2022-08-29T14:59:15.388Z,7.30
2022-08-29T15:01:41.902Z,4.70
2022-08-29T15:04:11.190Z,4.10
2022-08-29T15:06:37.815Z,7.07
2022-08-29T15:09:04.759Z,5.47
2022-08-29T15:11:31.339Z,3.57
2022-08-29T15:14:02.151Z,4.80
2022-08-29T15:16:30.553Z,6.60
2022-08-29T15:21:43.596Z,4.40
2022-08-29T15:24:10.068Z,5.83
2022-08-29T15:26:36.617Z,7.13
2022-08-29T15:29:05.823Z,5.17
2022-08-29T15:31:32.231Z,5.67
2022-08-29T15:33:58.637Z,5.13
2022-08-29T15:36:24.963Z,3.87
2022-08-29T15:38:51.261Z,14.17
2022-08-29T15:41:18.885Z,8.20
2022-08-29T15:43:45.321Z,7.80
2022-08-29T15:46:11.692Z,5.17
2022-08-29T15:48:38.026Z,4.50
2022-08-29T15:51:04.345Z,4.50
2022-08-29T15:53:30.612Z,2.43
2022-08-29T15:55:56.887Z,4.40
2022-08-29T15:58:23.200Z,6.13
2022-08-29T16:00:49.503Z,6.07
2022-08-29T16:03:16.584Z,6.97
2022-08-29T16:05:42.877Z,5.77
2022-08-29T16:08:10.628Z,2.97
2022-08-29T16:10:43.399Z,3.30
2022-08-29T16:13:12.326Z,4.93
2022-08-29T16:15:38.740Z,6.97
2022-08-29T16:18:05.111Z,8.77
2022-08-29T16:20:31.706Z,4.40
2022-08-29T16:22:59.198Z,4.13
2022-08-29T16:25:25.964Z,2.30
2022-08-29T16:27:52.288Z,3.27
2022-08-29T16:30:19.233Z,3.20
2022-08-29T16:32:45.787Z,3.43
2022-08-29T16:35:12.727Z,2.20
2022-08-29T16:37:39.117Z,2.97
2022-08-29T16:40:05.919Z,2.27
2022-08-29T16:42:33.455Z,3.17
2022-08-29T16:45:00.200Z,6.83
2022-08-29T16:47:27.846Z,4.50
2022-08-29T16:49:54.160Z,4.93
2022-08-29T16:52:20.433Z,4.77
2022-08-29T16:54:46.686Z,5.03
2022-08-29T16:57:12.951Z,15.67
2022-08-29T16:59:39.212Z,26.40
2022-08-29T17:02:05.630Z,8.37
2022-08-29T17:04:32.603Z,7.33
2022-08-29T17:06:59.719Z,4.93
2022-08-29T17:09:26.008Z,2.70
2022-08-29T17:11:53.044Z,3.33
2022-08-29T17:14:19.837Z,2.77
2022-08-29T17:16:47.282Z,3.20
2022-08-29T17:19:14.759Z,21.53
2022-08-29T17:21:41.243Z,7.93
2022-08-29T17:24:20.988Z,5.43
2022-08-29T17:26:47.843Z,2.57
2022-08-29T17:29:15.057Z,1.80
2022-08-29T17:31:41.368Z,2.33
2022-08-29T17:34:08.428Z,6.57
2022-08-29T17:36:36.554Z,2.07
2022-08-29T17:39:03.369Z,3.17
2022-08-29T17:41:31.259Z,2.93
2022-08-29T17:43:58.995Z,3.43
2022-08-29T17:46:25.435Z,3.27
2022-08-29T17:48:51.802Z,4.20
2022-08-29T17:51:18.076Z,4.40
2022-08-29T17:53:46.122Z,1.60
2022-08-29T17:56:13.748Z,3.83
2022-08-29T17:58:40.364Z,13.27
2022-08-29T18:01:15.711Z,5.90
2022-08-29T18:03:43.529Z,3.47
2022-08-29T18:06:10.540Z,4.27
2022-08-29T18:08:38.021Z,21.80
2022-08-29T18:11:04.521Z,11.33
2022-08-29T18:13:31.320Z,6.30
2022-08-29T18:15:57.575Z,2.93
2022-08-29T18:18:23.870Z,2.87
2022-08-29T18:20:51.025Z,3.93
2022-08-29T18:23:17.660Z,6.53
2022-08-29T18:25:43.927Z,3.17
2022-08-29T18:28:10.216Z,2.83
2022-08-29T18:30:36.696Z,2.83
2022-08-29T18:33:03.091Z,4.33
2022-08-29T18:35:29.477Z,4.20
2022-08-29T18:37:55.754Z,3.67
2022-08-29T18:40:22.205Z,5.07
2022-08-29T18:42:48.546Z,3.43
2022-08-29T18:45:14.909Z,2.93
2022-08-29T18:47:41.300Z,3.63
2022-08-29T18:50:26.692Z,2.97
2022-08-29T18:52:53.386Z,4.80
2022-08-29T18:55:20.615Z,3.90
2022-08-29T18:57:48.121Z,8.23
2022-08-29T19:00:14.865Z,17.17
2022-08-29T19:02:41.307Z,11.13
2022-08-29T19:05:13.078Z,6.57
2022-08-29T19:07:39.380Z,4.87
2022-08-29T19:10:06.124Z,4.40
2022-08-29T19:12:32.451Z,3.20
2022-08-29T19:15:00.075Z,16.57
2022-08-29T19:17:26.527Z,18.57
2022-08-29T19:20:12.409Z,9.30
2022-08-29T19:22:39.299Z,7.00
2022-08-29T19:25:06.926Z,3.40
2022-08-29T19:27:43.326Z,4.13
2022-08-29T19:30:11.091Z,3.10
2022-08-29T19:32:37.388Z,3.40
2022-08-29T19:35:03.938Z,4.80
2022-08-29T19:37:30.200Z,8.80
2022-08-29T19:39:56.842Z,5.93
2022-08-29T19:42:23.904Z,7.93
2022-08-29T19:44:50.183Z,4.43
2022-08-29T19:47:16.450Z,12.80
2022-08-29T19:49:45.435Z,19.10
2022-08-29T19:52:11.981Z,9.40
2022-08-29T19:54:38.240Z,7.23
2022-08-29T19:57:04.595Z,6.47
2022-08-29T19:59:31.905Z,8.93
2022-08-29T20:01:58.694Z,10.87
2022-08-29T20:04:25.091Z,8.03
2022-08-29T20:06:52.245Z,7.47
2022-08-29T20:09:20.560Z,5.70
2022-08-29T20:11:47.557Z,5.87
2022-08-29T20:14:14.191Z,4.90
2022-08-29T20:16:41.855Z,3.53
2022-08-29T20:19:08.325Z,2.73
2022-08-29T20:21:34.793Z,5.93
2022-08-29T20:24:02.295Z,3.13
2022-08-29T20:26:31.479Z,3.20
2022-08-29T20:28:58.530Z,2.17
2022-08-29T20:31:24.942Z,2.83
2022-08-29T20:33:51.265Z,5.03
2022-08-29T20:36:38.621Z,2.13
2022-08-29T20:39:05.648Z,2.97
2022-08-29T20:41:32.062Z,3.17
2022-08-29T20:43:58.494Z,3.77
2022-08-29T20:46:24.919Z,1.90
2022-08-29T20:48:51.196Z,2.20
2022-08-29T20:51:17.523Z,3.97
2022-08-29T20:53:43.800Z,4.33
2022-08-29T20:56:11.110Z,3.37
2022-08-29T20:58:37.393Z,2.30
2022-08-29T21:01:03.850Z,1.67
2022-08-29T21:03:48.981Z,2.37
2022-08-29T21:06:17.843Z,3.57
2022-08-29T21:08:44.107Z,3.03
2022-08-29T21:11:14.525Z,3.23
2022-08-29T21:13:43.056Z,2.23
2022-08-29T21:16:09.455Z,4.90
2022-08-29T21:18:35.755Z,2.43
2022-08-29T21:21:02.116Z,2.10
2022-08-29T21:23:28.991Z,2.00
2022-08-29T21:25:56.503Z,1.90
2022-08-29T21:28:24.689Z,1.70
2022-08-29T21:30:51.554Z,3.00
2022-08-29T21:33:18.292Z,3.27
2022-08-29T21:35:44.573Z,5.43
2022-08-29T21:38:11.155Z,4.07
2022-08-29T21:40:44.200Z,3.07
2022-08-29T21:43:17.223Z,1.80
2022-08-29T21:45:43.744Z,2.43
2022-08-29T21:48:10.001Z,2.10
2022-08-29T21:50:38.331Z,2.53
2022-08-29T21:53:04.882Z,2.23
2022-08-29T21:55:31.179Z,2.70
2022-08-29T21:58:01.986Z,5.70
2022-08-29T22:00:32.374Z,1.93
2022-08-29T22:03:03.850Z,2.30
2022-08-29T22:05:31.112Z,2.00
2022-08-29T22:07:58.023Z,2.93
2022-08-29T22:10:25.974Z,2.30
2022-08-29T22:12:52.944Z,2.10
2022-08-29T22:15:38.429Z,4.77
2022-08-29T22:18:05.276Z,2.40
2022-08-29T22:20:32.375Z,2.97
2022-08-29T22:22:58.855Z,4.20
2022-08-29T22:25:25.249Z,2.93
2022-08-29T22:27:51.522Z,3.57
2022-08-29T22:30:17.776Z,4.83
2022-08-29T22:32:44.026Z,2.87
2022-08-29T22:35:19.291Z,2.67
2022-08-29T22:37:45.580Z,2.40
2022-08-29T22:40:13.688Z,2.77
2022-08-29T22:42:40.708Z,3.50
2022-08-29T22:45:08.822Z,2.90
2022-08-29T22:47:35.896Z,2.17
2022-08-29T22:50:02.428Z,2.77
2022-08-29T22:52:28.742Z,2.73
2022-08-29T22:54:55.002Z,2.60
2022-08-29T22:57:21.806Z,2.60
2022-08-29T22:59:49.112Z,3.10
2022-08-29T23:02:15.975Z,3.53
2022-08-29T23:04:42.679Z,2.70
2022-08-29T23:07:11.691Z,2.57
2022-08-29T23:09:39.037Z,3.00
2022-08-29T23:12:06.037Z,3.07
2022-08-29T23:14:34.511Z,4.03
2022-08-29T23:17:00.936Z,3.03
2022-08-29T23:19:27.207Z,2.87
2022-08-29T23:21:54.874Z,2.83
2022-08-29T23:24:21.153Z,2.47
2022-08-29T23:26:48.640Z,4.03
2022-08-29T23:29:14.995Z,4.50
2022-08-29T23:31:41.243Z,3.30
2022-08-29T23:34:07.695Z,5.53
2022-08-29T23:36:34.222Z,3.53
2022-08-29T23:39:01.009Z,3.20
2022-08-29T23:41:27.304Z,3.03
2022-08-29T23:43:53.579Z,3.27
2022-08-29T23:46:20.711Z,4.40
2022-08-29T23:48:47.060Z,4.17
2022-08-29T23:51:16.360Z,3.57
2022-08-29T23:53:43.173Z,3.60
2022-08-29T23:56:17.849Z,2.93
2022-08-29T23:58:44.252Z,4.43
